Time;durP1;ratioP1;P1;durP2;ratioP2;P2;SDS_P1;SDS_P2;PMS_P1;PMS_P2;Temp;Humidity;BMP_temperature;BMP_pressure;BME280_temperature;BME280_humidity;BME280_pressure;Samples;Min_cycle;Max_cycle;Signal;HPM_P1;HPM_P2
2023/08/12 00:00:09;;;;;;;4.40;2.27;;;20.30;99.90;;;;;;5116622;28;20437;-86
2023/08/12 00:02:36;;;;;;;2.13;2.00;;;20.30;99.90;;;;;;5116266;28;20491;-86
2023/08/12 00:05:03;;;;;;;2.77;2.57;;;20.40;99.90;;;;;;5116297;27;20991;-86
2023/08/12 00:07:30;;;;;;;2.33;1.97;;;20.30;99.90;;;;;;5116346;28;20474;-86
2023/08/12 00:09:57;;;;;;;2.67;2.07;;;20.30;99.90;;;;;;5116202;28;20438;-87
2023/08/12 00:12:24;;;;;;;2.60;2.40;;;20.30;99.90;;;;;;5116235;28;20457;-86
2023/08/12 00:14:52;;;;;;;3.23;1.70;;;20.30;99.90;;;;;;5115868;28;20451;-86
2023/08/12 00:17:18;;;;;;;3.60;2.73;;;20.20;99.90;;;;;;5115739;28;20443;-87
2023/08/12 00:19:45;;;;;;;5.93;2.23;;;20.20;99.90;;;;;;5115786;28;20504;-86
2023/08/12 00:22:12;;;;;;;2.97;2.23;;;20.20;99.90;;;;;;5115979;28;20478;-86
2023/08/12 00:24:39;;;;;;;3.53;2.43;;;20.20;99.90;;;;;;5115519;27;20455;-86
2023/08/12 00:27:08;;;;;;;2.30;1.83;;;20.20;99.90;;;;;;5115984;28;20445;-87
2023/08/12 00:29:35;;;;;;;9.73;2.57;;;20.20;99.90;;;;;;5115801;28;20495;-86
2023/08/12 00:32:04;;;;;;;1.70;1.43;;;20.20;99.90;;;;;;5115639;28;20800;-86
2023/08/12 00:34:31;;;;;;;2.00;1.90;;;20.20;99.90;;;;;;5115659;28;20475;-86
2023/08/12 00:36:57;;;;;;;2.70;2.20;;;20.20;99.90;;;;;;5115674;28;20443;-86
2023/08/12 00:39:24;;;;;;;3.80;2.20;;;20.20;99.90;;;;;;5115554;28;20439;-87
2023/08/12 00:41:51;;;;;;;2.40;1.70;;;20.10;99.90;;;;;;5115536;28;20447;-86
2023/08/12 00:44:18;;;;;;;2.93;1.97;;;20.20;99.90;;;;;;5115589;28;20555;-87
2023/08/12 00:46:45;;;;;;;2.70;1.80;;;20.10;99.90;;;;;;5115155;28;20962;-86
2023/08/12 00:49:14;;;;;;;1.80;1.60;;;20.10;99.90;;;;;;5115520;28;20442;-86
2023/08/12 00:51:42;;;;;;;1.97;1.87;;;20.10;99.90;;;;;;5115268;28;20443;-86
2023/08/12 00:54:12;;;;;;;2.57;2.37;;;20.10;99.90;;;;;;5115244;28;20470;-86
2023/08/12 00:56:39;;;;;;;2.30;2.10;;;20.10;99.90;;;;;;5115373;28;20423;-86
2023/08/12 00:59:08;;;;;;;3.13;2.10;;;20.10;99.90;;;;;;5115187;28;20445;-86
2023/08/12 01:01:36;;;;;;;3.10;2.07;;;20.00;99.90;;;;;;5115107;28;20512;-86
2023/08/12 01:04:03;;;;;;;3.63;2.30;;;20.00;99.90;;;;;;5113697;28;20494;-87
2023/08/12 01:06:31;;;;;;;2.40;2.20;;;20.00;99.90;;;;;;5115010;28;20443;-87
2023/08/12 01:08:58;;;;;;;7.10;1.60;;;20.00;99.90;;;;;;5120160;28;20449;-85
2023/08/12 01:11:30;;;;;;;3.93;2.10;;;20.00;99.90;;;;;;5119184;28;20438;-86
2023/08/12 01:14:05;;;;;;;4.33;2.20;;;20.00;99.90;;;;;;5114580;28;20803;-86
2023/08/12 01:16:36;;;;;;;2.20;2.00;;;20.00;99.90;;;;;;5114948;28;20430;-86
2023/08/12 01:19:07;;;;;;;3.20;2.20;;;20.00;99.90;;;;;;5115050;28;20431;-86
2023/08/12 01:21:40;;;;;;;2.57;2.37;;;20.00;99.90;;;;;;5114593;28;20418;-86
2023/08/12 01:24:09;;;;;;;4.67;1.67;;;20.00;99.90;;;;;;5114377;28;21018;-86
2023/08/12 01:26:35;;;;;;;5.60;2.30;;;20.00;99.90;;;;;;5114446;28;20541;-86
2023/08/12 01:29:03;;;;;;;1.83;1.73;;;20.00;99.90;;;;;;5114500;28;20446;-86
2023/08/12 01:31:35;;;;;;;5.90;2.30;;;20.10;99.90;;;;;;5114734;28;20454;-87
2023/08/12 01:34:09;;;;;;;1.90;1.57;;;20.00;99.90;;;;;;5114543;28;20549;-86
2023/08/12 01:36:37;;;;;;;1.87;1.77;;;20.00;99.90;;;;;;5114333;28;20426;-87
2023/08/12 01:39:07;;;;;;;1.80;1.70;;;20.00;99.90;;;;;;5114464;28;20459;-87
2023/08/12 01:41:36;;;;;;;2.20;2.10;;;20.00;99.90;;;;;;5115262;28;20530;-86
2023/08/12 01:44:03;;;;;;;2.07;1.70;;;20.00;99.90;;;;;;5114118;28;21013;-87
2023/08/12 01:46:30;;;;;;;5.30;1.90;;;20.00;99.90;;;;;;5114370;28;20533;-86
2023/08/12 01:48:56;;;;;;;2.37;2.10;;;20.10;99.90;;;;;;5114453;28;20445;-86
2023/08/12 01:51:23;;;;;;;3.27;1.97;;;20.10;99.90;;;;;;5114281;28;20573;-86
2023/08/12 01:53:50;;;;;;;2.93;2.30;;;20.00;99.90;;;;;;5114203;28;20529;-87
2023/08/12 01:56:17;;;;;;;2.03;1.83;;;20.10;99.90;;;;;;5114309;28;20447;-87
2023/08/12 01:58:45;;;;;;;8.03;1.77;;;20.10;99.90;;;;;;5114471;28;20461;-86
2023/08/12 02:01:11;;;;;;;3.23;2.00;;;20.20;99.90;;;;;;5113835;28;20453;-86
2023/08/12 02:03:38;;;;;;;3.57;2.43;;;20.10;99.90;;;;;;5113514;28;20494;-86
2023/08/12 02:06:05;;;;;;;4.93;2.03;;;20.10;99.90;;;;;;5114017;28;20787;-86
2023/08/12 02:08:32;;;;;;;4.20;2.37;;;20.10;99.90;;;;;;5114122;28;20447;-86
2023/08/12 02:10:58;;;;;;;3.50;2.43;;;20.10;99.90;;;;;;5114003;28;20439;-86
2023/08/12 02:13:25;;;;;;;2.63;2.23;;;20.10;99.90;;;;;;5113747;28;20893;-86
2023/08/12 02:15:53;;;;;;;1.70;1.60;;;20.10;99.90;;;;;;5113615;28;20474;-86
2023/08/12 02:18:20;;;;;;;3.60;2.60;;;20.10;99.90;;;;;;5113906;28;20537;-86
2023/08/12 02:20:48;;;;;;;2.20;1.90;;;20.10;99.90;;;;;;5113879;28;20438;-85
2023/08/12 02:23:14;;;;;;;3.07;2.20;;;20.20;99.90;;;;;;5113715;28;20478;-86
2023/08/12 02:25:41;;;;;;;2.10;2.00;;;20.20;99.90;;;;;;5113595;28;21009;-86
2023/08/12 02:28:08;;;;;;;2.53;2.33;;;20.20;99.90;;;;;;5113856;28;20440;-85
2023/08/12 02:30:35;;;;;;;4.67;2.63;;;20.20;99.90;;;;;;5113813;28;20434;-86
2023/08/12 02:33:03;;;;;;;3.50;2.37;;;20.10;99.90;;;;;;5113441;28;20435;-86
2023/08/12 02:35:30;;;;;;;2.07;1.87;;;20.10;99.90;;;;;;5113526;28;20469;-86
2023/08/12 02:37:56;;;;;;;1.93;1.83;;;20.10;99.90;;;;;;5113727;28;20438;-86
2023/08/12 02:40:23;;;;;;;4.17;2.37;;;20.10;99.90;;;;;;5113478;28;20955;-85
2023/08/12 02:42:50;;;;;;;2.17;1.90;;;20.10;99.90;;;;;;5113614;28;20475;-86
2023/08/12 02:45:17;;;;;;;2.27;2.03;;;20.10;99.90;;;;;;5113307;28;20516;-86
2023/08/12 02:47:44;;;;;;;3.70;2.50;;;20.10;99.90;;;;;;5113601;28;20443;-86
2023/08/12 02:50:12;;;;;;;2.93;2.20;;;20.20;99.90;;;;;;5113077;28;20438;-86
2023/08/12 02:52:38;;;;;;;2.60;2.40;;;20.10;99.90;;;;;;5113717;28;20439;-86
2023/08/12 02:55:05;;;;;;;2.30;2.17;;;19.90;99.90;;;;;;5113604;28;20463;-86
2023/08/12 02:57:32;;;;;;;3.37;2.53;;;20.10;99.90;;;;;;5113323;28;20439;-86
2023/08/12 02:59:59;;;;;;;2.70;2.30;;;20.00;99.90;;;;;;5113145;28;20534;-86
2023/08/12 03:02:26;;;;;;;2.23;2.03;;;20.00;99.90;;;;;;5113099;28;20480;-85
2023/08/12 03:04:54;;;;;;;6.10;2.37;;;20.10;99.90;;;;;;5113421;28;20458;-86
2023/08/12 03:07:22;;;;;;;3.53;2.73;;;20.00;99.90;;;;;;5113159;28;20446;-86
2023/08/12 03:09:48;;;;;;;3.10;2.30;;;20.00;99.90;;;;;;5113417;28;20442;-86
2023/08/12 03:12:15;;;;;;;2.80;2.60;;;20.00;99.90;;;;;;5113466;28;20439;-86
2023/08/12 03:14:42;;;;;;;4.80;2.70;;;20.10;99.90;;;;;;5113018;28;20995;-86
2023/08/12 03:17:09;;;;;;;2.87;2.67;;;20.00;99.90;;;;;;5113404;28;20804;-85
2023/08/12 03:19:35;;;;;;;2.30;1.93;;;20.10;99.90;;;;;;5113316;28;20450;-86
2023/08/12 03:22:02;;;;;;;3.40;2.40;;;20.00;99.90;;;;;;5113408;28;20442;-86
2023/08/12 03:24:30;;;;;;;5.43;3.03;;;20.00;99.90;;;;;;5113196;28;20502;-86
2023/08/12 03:26:57;;;;;;;2.10;1.90;;;20.10;99.90;;;;;;5113442;28;20563;-86
2023/08/12 03:29:24;;;;;;;4.27;2.20;;;20.00;99.90;;;;;;5116903;28;20442;-85
2023/08/12 03:31:51;;;;;;;2.50;2.10;;;20.00;99.90;;;;;;5116594;27;20457;-86
2023/08/12 03:34:17;;;;;;;4.07;2.53;;;20.10;99.90;;;;;;5116798;28;20467;-87
2023/08/12 03:36:45;;;;;;;2.60;2.40;;;20.00;99.90;;;;;;5116823;28;20443;-86
2023/08/12 03:39:12;;;;;;;3.13;2.33;;;20.10;99.90;;;;;;5116769;28;20442;-86
2023/08/12 03:41:40;;;;;;;3.90;2.20;;;20.10;99.90;;;;;;5116783;28;20446;-86
2023/08/12 03:44:07;;;;;;;2.27;2.07;;;20.10;99.90;;;;;;5116496;28;20486;-86
2023/08/12 03:46:34;;;;;;;6.53;2.60;;;20.20;99.90;;;;;;5116462;28;20944;-85
2023/08/12 03:49:01;;;;;;;2.90;2.40;;;20.20;99.90;;;;;;5116623;28;20447;-86
2023/08/12 03:51:27;;;;;;;4.50;3.00;;;20.10;99.90;;;;;;5116434;28;20442;-85
2023/08/12 03:53:54;;;;;;;2.20;1.83;;;20.20;99.90;;;;;;5116471;28;20435;-85
2023/08/12 03:56:21;;;;;;;3.43;2.20;;;20.10;99.90;;;;;;5116523;28;20450;-85
2023/08/12 03:58:49;;;;;;;2.57;2.07;;;20.20;99.90;;;;;;5116410;28;20450;-85
2023/08/12 04:01:16;;;;;;;2.20;2.10;;;20.20;99.90;;;;;;5116356;27;20824;-85
2023/08/12 04:03:43;;;;;;;1.87;1.57;;;20.20;99.90;;;;;;5115776;28;21038;-85
2023/08/12 04:06:09;;;;;;;2.60;1.97;;;20.30;99.90;;;;;;5116213;28;20439;-85
2023/08/12 04:08:36;;;;;;;2.53;2.33;;;20.30;99.90;;;;;;5116191;28;20438;-86
2023/08/12 04:11:03;;;;;;;4.33;2.50;;;20.30;99.90;;;;;;5116221;28;20442;-85
2023/08/12 04:13:30;;;;;;;3.60;2.50;;;20.30;99.90;;;;;;5115841;28;20923;-86
2023/08/12 04:15:58;;;;;;;4.70;2.50;;;20.30;99.90;;;;;;5116013;28;20998;-86
2023/08/12 04:18:24;;;;;;;2.13;1.93;;;20.30;99.90;;;;;;5115989;28;20483;-86
2023/08/12 04:20:53;;;;;;;3.87;2.80;;;20.30;99.90;;;;;;5115894;28;20442;-86
2023/08/12 04:23:20;;;;;;;2.40;1.70;;;20.30;99.90;;;;;;5115910;27;20932;-86
2023/08/12 04:25:47;;;;;;;3.00;2.27;;;20.30;99.90;;;;;;5115660;28;20455;-85
2023/08/12 04:28:14;;;;;;;4.83;2.43;;;20.30;99.90;;;;;;5115815;28;20820;-86
2023/08/12 04:30:42;;;;;;;3.67;2.43;;;20.30;99.90;;;;;;5115746;28;20447;-86
2023/08/12 04:33:10;;;;;;;3.80;2.40;;;20.30;99.90;;;;;;5115831;28;20426;-85
2023/08/12 04:35:37;;;;;;;12.00;2.87;;;20.30;99.90;;;;;;5115539;28;20458;-85
2023/08/12 04:38:04;;;;;;;2.37;2.27;;;20.30;99.90;;;;;;5115448;28;20475;-85
2023/08/12 04:40:31;;;;;;;3.10;2.63;;;20.20;99.90;;;;;;5115491;28;20442;-85
2023/08/12 04:42:59;;;;;;;2.40;2.30;;;20.30;99.90;;;;;;5115374;28;20442;-86
2023/08/12 04:45:26;;;;;;;2.47;2.27;;;20.20;99.90;;;;;;5115188;28;20462;-86
2023/08/12 04:47:53;;;;;;;4.23;2.40;;;20.20;99.90;;;;;;5115504;28;20857;-87
2023/08/12 04:50:21;;;;;;;2.20;2.00;;;20.10;99.90;;;;;;5115304;28;20443;-86
2023/08/12 04:52:48;;;;;;;5.10;3.20;;;20.10;99.90;;;;;;5115469;28;20820;-86
2023/08/12 04:55:16;;;;;;;3.40;2.67;;;20.10;99.90;;;;;;5115317;28;20887;-86
2023/08/12 04:57:43;;;;;;;2.60;2.40;;;20.10;99.90;;;;;;5115631;28;20482;-86
2023/08/12 05:00:11;;;;;;;2.30;1.93;;;20.10;99.90;;;;;;5115304;28;20442;-86
2023/08/12 05:02:37;;;;;;;3.20;2.90;;;20.00;99.90;;;;;;5115429;28;20474;-86
2023/08/12 05:05:05;;;;;;;3.70;2.63;;;20.10;99.90;;;;;;5114852;28;21017;-86
2023/08/12 05:07:33;;;;;;;2.53;2.33;;;20.10;99.90;;;;;;5116531;28;20442;-87
2023/08/12 05:10:00;;;;;;;2.93;2.60;;;20.10;99.90;;;;;;5115502;28;20443;-88
2023/08/12 05:12:27;;;;;;;3.30;2.57;;;20.10;99.90;;;;;;5115529;28;20434;-87
2023/08/12 05:14:54;;;;;;;2.93;2.57;;;20.00;99.90;;;;;;5115528;28;20459;-87
2023/08/12 05:17:20;;;;;;;2.60;2.40;;;19.90;99.90;;;;;;5115259;28;20939;-87
2023/08/12 05:19:47;;;;;;;2.70;2.50;;;20.10;99.90;;;;;;5115209;28;20445;-87
2023/08/12 05:22:14;;;;;;;4.90;3.00;;;20.10;99.90;;;;;;5115447;28;20454;-87
2023/08/12 05:24:42;;;;;;;2.53;2.33;;;20.10;99.90;;;;;;5115622;28;21003;-87
2023/08/12 05:27:09;;;;;;;3.90;2.33;;;20.00;99.90;;;;;;5114955;28;20939;-88
2023/08/12 05:29:36;;;;;;;2.00;1.90;;;20.10;99.90;;;;;;5115068;28;20442;-88
2023/08/12 05:32:02;;;;;;;3.20;2.90;;;20.10;99.90;;;;;;5115224;28;20534;-88
2023/08/12 05:34:29;;;;;;;2.77;2.57;;;20.30;99.90;;;;;;5115020;28;20462;-87
2023/08/12 05:36:56;;;;;;;2.50;2.30;;;20.20;99.90;;;;;;5114993;28;20434;-88
2023/08/12 05:39:22;;;;;;;2.40;2.30;;;20.30;99.90;;;;;;5115104;28;20450;-87
2023/08/12 05:41:52;;;;;;;2.17;1.97;;;20.30;99.90;;;;;;5115089;28;20765;-86
2023/08/12 05:44:19;;;;;;;3.33;3.03;;;20.40;99.90;;;;;;5114575;28;20482;-88
2023/08/12 05:46:45;;;;;;;5.47;2.67;;;20.40;99.90;;;;;;5114685;28;20435;-87
2023/08/12 05:49:13;;;;;;;3.73;2.47;;;20.40;99.90;;;;;;5115628;28;20485;-87
2023/08/12 05:51:41;;;;;;;2.60;2.40;;;20.50;99.90;;;;;;5114286;28;20899;-87
2023/08/12 05:54:08;;;;;;;5.63;2.40;;;20.50;99.90;;;;;;5115291;28;20466;-87
2023/08/12 05:56:34;;;;;;;5.73;3.40;;;20.50;99.90;;;;;;5114850;28;20529;-87
2023/08/12 05:59:02;;;;;;;2.60;2.10;;;20.60;99.90;;;;;;5114566;28;20443;-87
2023/08/12 06:01:29;;;;;;;2.70;2.07;;;20.70;99.90;;;;;;5114627;28;20434;-87
2023/08/12 06:03:59;;;;;;;2.83;2.63;;;20.60;99.90;;;;;;5113830;28;20573;-87
2023/08/12 06:06:26;;;;;;;4.30;2.60;;;20.70;99.90;;;;;;5114331;28;20441;-87
2023/08/12 06:08:53;;;;;;;2.30;2.10;;;20.70;99.90;;;;;;5114398;28;20434;-86
2023/08/12 06:11:19;;;;;;;2.73;2.53;;;20.70;99.90;;;;;;5114352;28;20445;-86
2023/08/12 06:13:46;;;;;;;3.63;3.10;;;20.70;99.90;;;;;;5114206;28;20442;-86
2023/08/12 06:16:14;;;;;;;2.50;2.30;;;20.80;99.90;;;;;;5114225;28;20449;-87
2023/08/12 06:18:41;;;;;;;3.50;2.67;;;20.80;99.90;;;;;;5114279;28;20495;-87
2023/08/12 06:21:08;;;;;;;3.23;2.87;;;20.90;99.90;;;;;;5114061;28;20438;-87
2023/08/12 06:23:34;;;;;;;3.07;2.30;;;21.00;99.90;;;;;;5113750;28;20516;-87
2023/08/12 06:26:02;;;;;;;2.93;2.50;;;21.10;99.90;;;;;;5114120;28;20442;-87
2023/08/12 06:28:28;;;;;;;5.10;2.20;;;21.10;99.90;;;;;;5113919;28;20531;-86
2023/08/12 06:30:55;;;;;;;2.50;2.30;;;21.20;99.90;;;;;;5114114;28;20822;-86
2023/08/12 06:33:23;;;;;;;2.73;2.53;;;21.30;99.90;;;;;;5113931;28;20438;-86
2023/08/12 06:35:51;;;;;;;2.33;2.13;;;21.50;99.90;;;;;;5113761;28;20473;-86
2023/08/12 06:38:18;;;;;;;2.80;2.60;;;21.70;99.90;;;;;;5113888;28;20496;-86
2023/08/12 06:40:45;;;;;;;3.60;2.60;;;22.00;99.90;;;;;;5122834;28;20448;-86
2023/08/12 06:43:11;;;;;;;2.77;2.50;;;22.40;99.90;;;;;;5113824;28;20470;-86
2023/08/12 06:45:38;;;;;;;4.90;1.80;;;22.70;99.90;;;;;;5113282;28;21020;-86
2023/08/12 06:48:06;;;;;;;2.40;2.20;;;22.90;99.90;;;;;;5113752;28;20434;-86
2023/08/12 06:50:34;;;;;;;2.03;1.93;;;23.20;99.90;;;;;;5113264;28;20205;-86
2023/08/12 06:53:00;;;;;;;2.27;2.07;;;23.30;99.90;;;;;;5113621;28;20601;-86
2023/08/12 06:55:27;;;;;;;2.90;2.20;;;23.20;99.90;;;;;;5113659;28;20217;-86
2023/08/12 06:57:54;;;;;;;3.60;2.80;;;23.30;99.90;;;;;;5113638;28;20200;-86
2023/08/12 07:00:21;;;;;;;2.95;2.60;;;23.40;99.90;;;;;;5113617;28;20208;-84
2023/08/12 07:02:48;;;;;;;3.07;2.60;;;23.50;99.90;;;;;;5114855;28;20239;-86
2023/08/12 07:05:14;;;;;;;4.97;2.43;;;23.60;99.90;;;;;;5117392;28;20224;-86
2023/08/12 07:07:43;;;;;;;2.03;1.92;;;23.50;99.90;;;;;;5117584;28;20580;-85
2023/08/12 07:10:10;;;;;;;4.47;2.58;;;23.60;99.90;;;;;;5117294;28;20207;-85
2023/08/12 07:12:36;;;;;;;2.67;2.42;;;23.70;99.90;;;;;;5117294;28;20201;-86
2023/08/12 07:15:04;;;;;;;2.65;2.38;;;23.90;99.90;;;;;;5117261;28;20239;-86
2023/08/12 07:17:30;;;;;;;2.38;2.13;;;24.00;99.90;;;;;;5117288;28;20578;-86
2023/08/12 07:19:57;;;;;;;2.35;2.13;;;24.10;99.90;;;;;;5117182;28;20200;-85
2023/08/12 07:22:24;;;;;;;2.63;2.42;;;24.30;99.90;;;;;;5117164;28;20208;-85
2023/08/12 07:24:52;;;;;;;3.08;2.00;;;24.30;99.90;;;;;;5116842;28;20227;-85
2023/08/12 07:27:19;;;;;;;2.05;1.95;;;24.50;99.90;;;;;;5117047;28;20204;-85
2023/08/12 07:29:47;;;;;;;2.10;1.90;;;24.70;99.90;;;;;;5116877;28;20208;-85
2023/08/12 07:32:13;;;;;;;3.28;2.22;;;24.80;99.90;;;;;;5116911;28;20205;-85
2023/08/12 07:34:40;;;;;;;2.45;2.25;;;25.00;99.90;;;;;;5116681;28;20216;-85
2023/08/12 07:37:07;;;;;;;2.65;2.13;;;25.20;99.90;;;;;;5116748;28;20575;-85
2023/08/12 07:39:32;;;;;;;4.78;2.33;;;25.30;99.90;;;;;;5116770;28;20686;-84
2023/08/12 07:42:01;;;;;;;3.08;2.38;;;25.20;99.90;;;;;;5116884;28;20210;-86
2023/08/12 07:44:27;;;;;;;1.90;1.80;;;25.20;99.90;;;;;;5116463;28;20594;-86
2023/08/12 07:46:54;;;;;;;6.93;2.50;;;25.40;99.90;;;;;;5116650;28;20197;-85
2023/08/12 07:49:22;;;;;;;3.28;2.00;;;25.70;99.90;;;;;;5116580;28;20200;-86
2023/08/12 07:51:49;;;;;;;2.67;2.28;;;25.90;99.90;;;;;;5116637;28;20207;-86
2023/08/12 07:54:16;;;;;;;5.72;2.22;;;26.00;99.90;;;;;;5116149;28;20221;-85
2023/08/12 07:56:43;;;;;;;2.58;2.30;;;26.00;99.90;;;;;;5117238;28;20200;-85
2023/08/12 07:59:11;;;;;;;2.03;1.90;;;26.20;99.90;;;;;;5116388;28;20227;-87
2023/08/12 08:01:38;;;;;;;2.55;2.30;;;26.50;99.90;;;;;;5116409;27;20553;-86
2023/08/12 08:04:05;;;;;;;2.65;2.45;;;26.70;99.90;;;;;;5115810;28;20239;-87
2023/08/12 08:06:32;;;;;;;2.38;1.95;;;26.80;99.90;;;;;;5116378;28;20224;-86
2023/08/12 08:09:00;;;;;;;2.00;1.90;;;26.90;99.90;;;;;;5116214;28;20201;-87
2023/08/12 08:11:27;;;;;;;5.72;1.98;;;26.90;99.90;;;;;;5116221;28;20200;-86
2023/08/12 08:13:54;;;;;;;1.65;1.55;;;26.80;99.90;;;;;;5116454;28;20627;-86
2023/08/12 08:16:22;;;;;;;2.28;2.08;;;26.70;99.90;;;;;;5116344;28;20200;-87
2023/08/12 08:18:49;;;;;;;2.25;1.67;;;26.70;99.90;;;;;;5116128;28;20307;-90
2023/08/12 08:21:16;;;;;;;1.90;1.80;;;26.70;99.90;;;;;;5116114;27;20201;-86
2023/08/12 08:23:43;;;;;;;1.70;1.60;;;26.80;99.90;;;;;;5115881;27;20207;-86
2023/08/12 08:26:10;;;;;;;1.70;1.60;;;27.10;99.90;;;;;;5115772;28;20231;-86
2023/08/12 08:28:38;;;;;;;5.63;2.50;;;27.10;99.90;;;;;;5115854;28;20219;-86
2023/08/12 08:31:05;;;;;;;1.88;1.75;;;27.50;99.90;;;;;;5115581;28;20263;-86
2023/08/12 08:33:33;;;;;;;2.33;1.95;;;27.90;99.90;;;;;;5115424;27;20691;-87
2023/08/12 08:36:00;;;;;;;3.25;1.80;;;28.30;99.90;;;;;;5115194;28;20219;-85
2023/08/12 08:38:26;;;;;;;1.52;1.40;;;28.40;99.90;;;;;;5115600;28;20201;-86
2023/08/12 08:40:53;;;;;;;2.60;1.60;;;28.40;99.90;;;;;;5116697;28;20205;-86
2023/08/12 08:43:22;;;;;;;2.15;1.30;;;28.30;99.90;;;;;;5115475;27;20201;-86
2023/08/12 08:45:50;;;;;;;2.55;1.88;;;28.30;99.90;;;;;;5115304;27;20220;-86
2023/08/12 08:48:17;;;;;;;2.05;1.83;;;28.40;99.90;;;;;;5115508;28;20202;-86
2023/08/12 08:50:47;;;;;;;1.90;1.80;;;28.30;99.90;;;;;;5115261;28;20201;-86
2023/08/12 08:53:15;;;;;;;2.28;1.70;;;28.20;99.90;;;;;;5115375;28;20574;-86
2023/08/12 08:55:42;;;;;;;2.00;1.88;;;28.20;99.90;;;;;;5115569;27;20219;-86
2023/08/12 08:58:09;;;;;;;1.75;1.65;;;28.20;99.90;;;;;;5115430;27;20583;-87
2023/08/12 09:00:37;;;;;;;2.03;1.60;;;28.40;99.90;;;;;;5115333;28;20214;-86
2023/08/12 09:03:05;;;;;;;2.78;1.63;;;28.40;99.90;;;;;;5114900;28;20233;-86
2023/08/12 09:05:35;;;;;;;1.85;1.75;;;28.70;99.90;;;;;;5114829;28;20707;-85
2023/08/12 09:08:06;;;;;;;4.93;1.05;;;28.80;99.90;;;;;;5115502;28;20210;-86
2023/08/12 09:10:35;;;;;;;1.40;1.30;;;28.70;99.90;;;;;;5115846;28;20190;-87
2023/08/12 09:13:03;;;;;;;1.63;1.17;;;28.70;99.90;;;;;;5114951;28;20210;-87
2023/08/12 09:15:30;;;;;;;1.10;1.00;;;28.50;99.90;;;;;;5114579;28;20832;-86
2023/08/12 09:17:56;;;;;;;1.98;1.65;;;28.30;99.90;;;;;;5114921;28;20217;-86
2023/08/12 09:20:23;;;;;;;1.10;1.10;;;28.30;99.90;;;;;;5114804;28;20207;-85
2023/08/12 09:22:58;;;;;;;1.38;1.27;;;28.40;99.90;;;;;;5114734;28;20206;-85
2023/08/12 09:25:27;;;;;;;1.50;1.40;;;28.60;99.90;;;;;;5113587;28;20246;-85
2023/08/12 09:27:56;;;;;;;1.83;1.73;;;28.80;99.90;;;;;;5114383;28;20685;-85
2023/08/12 09:30:22;;;;;;;1.67;1.58;;;28.80;99.90;;;;;;5114616;28;20209;-86
2023/08/12 09:33:00;;;;;;;2.25;1.50;;;28.80;99.90;;;;;;5114440;27;20202;-86
2023/08/12 09:35:34;;;;;;;1.83;1.73;;;28.90;99.90;;;;;;5114531;28;20222;-86
2023/08/12 09:38:02;;;;;;;2.15;1.80;;;28.70;99.90;;;;;;5114576;28;20236;-86
2023/08/12 09:40:31;;;;;;;1.45;1.35;;;28.60;99.90;;;;;;5114062;28;20211;-86
2023/08/12 09:42:58;;;;;;;2.08;1.98;;;28.50;99.90;;;;;;5114379;28;20205;-86
2023/08/12 09:45:26;;;;;;;1.55;1.17;;;28.30;99.90;;;;;;5114193;28;20229;-86
2023/08/12 09:47:53;;;;;;;1.70;1.60;;;28.10;99.90;;;;;;5114294;28;20197;-86
2023/08/12 09:50:22;;;;;;;1.92;1.77;;;27.80;99.90;;;;;;5114132;28;20210;-84
2023/08/12 09:52:49;;;;;;;1.25;1.15;;;27.60;99.90;;;;;;5114142;28;20258;-86
2023/08/12 09:55:17;;;;;;;1.70;1.60;;;27.60;99.90;;;;;;5114069;28;20308;-86
2023/08/12 09:57:49;;;;;;;1.90;1.77;;;27.50;99.90;;;;;;5114156;28;20200;-85
2023/08/12 10:00:18;;;;;;;1.90;1.80;;;27.30;99.90;;;;;;5114161;28;20199;-85
2023/08/12 10:02:46;;;;;;;4.43;1.92;;;27.20;99.90;;;;;;5113685;28;20260;-85
2023/08/12 10:05:19;;;;;;;2.20;1.90;;;27.10;99.90;;;;;;5113467;28;20682;-85
2023/08/12 10:07:48;;;;;;;2.40;2.20;;;27.10;99.90;;;;;;5113991;28;20189;-85
2023/08/12 10:10:15;;;;;;;2.08;1.90;;;27.10;99.90;;;;;;5113613;28;20211;-85
2023/08/12 10:12:42;;;;;;;1.90;1.80;;;27.10;99.90;;;;;;5113929;28;20209;-85
2023/08/12 10:15:11;;;;;;;1.58;1.48;;;27.20;99.90;;;;;;5113478;28;20227;-85
2023/08/12 10:17:39;;;;;;;1.40;1.30;;;27.30;99.90;;;;;;5114137;28;20201;-90
2023/08/12 10:20:08;;;;;;;1.90;1.58;;;27.50;99.90;;;;;;5113975;28;20283;-86
2023/08/12 10:22:37;;;;;;;1.77;1.67;;;27.60;99.90;;;;;;5113901;28;20208;-87
2023/08/12 10:25:04;;;;;;;2.40;1.73;;;27.60;99.90;;;;;;5113830;28;20224;-86
2023/08/12 10:27:32;;;;;;;1.60;1.50;;;27.80;99.90;;;;;;5113754;28;20207;-85
2023/08/12 10:29:58;;;;;;;1.88;1.75;;;28.00;99.90;;;;;;5113749;28;20204;-84
2023/08/12 10:32:27;;;;;;;1.77;1.67;;;28.00;99.90;;;;;;5113717;28;20226;-83
2023/08/12 10:34:58;;;;;;;1.42;1.35;;;27.90;99.90;;;;;;5113624;28;20281;-84
2023/08/12 10:37:25;;;;;;;1.33;1.23;;;27.80;99.90;;;;;;5116352;28;20200;-84
2023/08/12 10:39:53;;;;;;;1.88;1.77;;;27.70;99.90;;;;;;5117543;28;20192;-84
2023/08/12 10:42:40;;;;;;;1.20;1.10;;;27.80;99.90;;;;;;5117819;28;20197;-85
2023/08/12 10:45:09;;;;;;;4.78;1.20;;;28.00;99.90;;;;;;5117593;28;20226;-85
2023/08/12 10:47:41;;;;;;;1.70;1.58;;;28.20;99.90;;;;;;5117368;28;20258;-85
2023/08/12 10:50:19;;;;;;;1.75;1.50;;;28.50;99.90;;;;;;5117290;28;20639;-85
2023/08/12 10:52:46;;;;;;;1.60;1.50;;;28.60;99.90;;;;;;5117608;28;20190;-85
2023/08/12 10:55:24;;;;;;;1.58;1.48;;;28.70;99.90;;;;;;5117253;28;20224;-85
2023/08/12 10:57:52;;;;;;;2.75;2.55;;;28.80;99.90;;;;;;5117556;28;20310;-85
2023/08/12 11:00:21;;;;;;;1.67;1.58;;;28.70;99.90;;;;;;5117217;28;20202;-85
2023/08/12 11:02:52;;;;;;;4.68;1.83;;;28.70;99.90;;;;;;5116854;28;20231;-85
2023/08/12 11:05:19;;;;;;;2.40;2.20;;;28.80;99.90;;;;;;5116648;28;20225;-85
2023/08/12 11:07:48;;;;;;;3.30;1.65;;;28.90;99.90;;;;;;5116780;28;20596;-84
2023/08/12 11:10:17;;;;;;;1.88;1.77;;;29.20;99.90;;;;;;5117078;28;20228;-85
2023/08/12 11:12:48;;;;;;;3.47;1.90;;;29.30;99.90;;;;;;5117002;28;20207;-85
2023/08/12 11:15:15;;;;;;;1.42;1.33;;;29.20;99.90;;;;;;5116524;28;20734;-84
2023/08/12 11:17:43;;;;;;;1.77;1.67;;;29.00;99.90;;;;;;5116828;28;20199;-84
2023/08/12 11:20:12;;;;;;;1.80;1.70;;;28.90;99.90;;;;;;5116972;28;20212;-85
2023/08/12 11:22:40;;;;;;;1.42;1.33;;;28.80;99.90;;;;;;5116926;28;20304;-84
2023/08/12 11:25:08;;;;;;;2.70;1.90;;;28.70;99.90;;;;;;5116716;28;20224;-85
2023/08/12 11:27:42;;;;;;;2.13;1.92;;;28.60;99.90;;;;;;5116990;27;20218;-85
2023/08/12 11:30:11;;;;;;;1.58;1.40;;;28.60;99.90;;;;;;5116653;28;20207;-85
2023/08/12 11:32:39;;;;;;;1.48;1.48;;;28.60;99.90;;;;;;5116305;28;20702;-85
2023/08/12 11:35:07;;;;;;;6.72;1.67;;;28.60;99.90;;;;;;5116515;28;20217;-84
2023/08/12 11:37:36;;;;;;;1.45;1.35;;;28.50;99.90;;;;;;5116198;28;20203;-84
2023/08/12 11:40:03;;;;;;;1.35;1.25;;;28.50;99.90;;;;;;5116449;28;20203;-84
2023/08/12 11:42:30;;;;;;;1.95;1.73;;;28.40;99.90;;;;;;5116629;28;20203;-85
2023/08/12 11:44:58;;;;;;;1.70;1.60;;;28.40;99.90;;;;;;5116333;28;20221;-85
2023/08/12 11:47:25;;;;;;;1.52;1.42;;;28.50;99.90;;;;;;5116233;28;20207;-85
2023/08/12 11:49:54;;;;;;;1.40;1.30;;;28.60;99.90;;;;;;5115892;28;20225;-85
2023/08/12 11:52:21;;;;;;;2.22;2.03;;;28.50;99.90;;;;;;5116181;28;20735;-84
2023/08/12 11:54:51;;;;;;;1.60;1.50;;;28.50;99.90;;;;;;5116361;28;20220;-84
2023/08/12 11:57:18;;;;;;;1.50;1.40;;;28.30;99.90;;;;;;5116385;28;20201;-84
2023/08/12 11:59:44;;;;;;;1.75;1.65;;;28.20;99.90;;;;;;5116183;28;20206;-84
2023/08/12 12:02:12;;;;;;;1.50;1.40;;;28.10;99.90;;;;;;5115867;28;20231;-83
2023/08/12 12:04:39;;;;;;;2.75;1.27;;;28.00;99.90;;;;;;5116141;28;20251;-84
2023/08/12 12:07:18;;;;;;;2.47;1.50;;;27.90;99.90;;;;;;5115892;28;20220;-83
2023/08/12 12:09:45;;;;;;;2.63;1.63;;;27.80;99.90;;;;;;5116405;28;20212;-84
2023/08/12 12:12:13;;;;;;;1.75;1.35;;;27.70;99.90;;;;;;5116055;28;20562;-84
2023/08/12 12:14:40;;;;;;;1.60;1.50;;;27.50;99.90;;;;;;5115929;28;20220;-85
2023/08/12 12:17:10;;;;;;;3.13;1.70;;;27.20;99.90;;;;;;5116385;27;20283;-89
2023/08/12 12:19:37;;;;;;;1.48;1.38;;;26.70;99.90;;;;;;5116157;28;20212;-86
2023/08/12 12:22:05;;;;;;;1.33;1.23;;;26.20;99.90;;;;;;5115662;28;20208;-85
2023/08/12 12:24:32;;;;;;;1.85;1.20;;;25.70;99.90;;;;;;5115885;28;20248;-86
2023/08/12 12:26:58;;;;;;;1.58;1.27;;;25.30;99.90;;;;;;5115965;27;20220;-86
2023/08/12 12:29:27;;;;;;;1.08;0.90;;;25.00;99.90;;;;;;5115360;28;20666;-86
2023/08/12 12:31:53;;;;;;;1.10;1.00;;;24.60;99.90;;;;;;5115514;28;20696;-86
2023/08/12 12:34:20;;;;;;;1.95;1.00;;;24.20;99.90;;;;;;5115957;28;20228;-87
2023/08/12 12:36:47;;;;;;;3.47;1.58;;;23.80;99.90;;;;;;5115685;28;20197;-87
2023/08/12 12:39:14;;;;;;;1.55;1.05;;;23.40;99.90;;;;;;5115879;28;20197;-86
2023/08/12 12:41:40;;;;;;;1.60;1.50;;;23.10;99.90;;;;;;5115320;28;20205;-86
2023/08/12 12:44:07;;;;;;;1.42;1.33;;;23.00;99.90;;;;;;5115602;28;20225;-86
2023/08/12 12:46:36;;;;;;;4.33;1.60;;;22.90;99.90;;;;;;5115516;28;20217;-87
2023/08/12 12:49:03;;;;;;;1.97;1.30;;;22.70;99.90;;;;;;5115623;28;20203;-86